sensor_id;sensor_type;location;lat;lon;timestamp;temperature;humidity
39925;DHT22;25592;49.986;11.618;2023-03-16T00:01:32;3.90;99.90
39925;DHT22;25592;49.986;11.618;2023-03-16T00:04:17;4.00;99.90
39925;DHT22;25592;49.986;11.618;2023-03-16T00:07:08;4.00;99.90
39925;DHT22;25592;49.986;11.618;2023-03-16T00:09:53;4.10;99.90
39925;DHT22;25592;49.986;11.618;2023-03-16T00:12:39;4.10;99.90
39925;DHT22;25592;49.986;11.618;2023-03-16T00:15:27;4.10;99.90
39925;DHT22;25592;49.986;11.618;2023-03-16T00:18:13;4.10;99.90
39925;DHT22;25592;49.986;11.618;2023-03-16T00:21:00;4.10;99.90
39925;DHT22;25592;49.986;11.618;2023-03-16T00:23:49;4.20;99.90
39925;DHT22;25592;49.986;11.618;2023-03-16T00:26:34;4.20;99.90
39925;DHT22;25592;49.986;11.618;2023-03-16T00:29:20;4.10;99.90
39925;DHT22;25592;49.986;11.618;2023-03-16T00:32:06;4.00;99.90
39925;DHT22;25592;49.986;11.618;2023-03-16T00:34:52;4.10;99.90
39925;DHT22;25592;49.986;11.618;2023-03-16T00:37:37;4.10;99.90
39925;DHT22;25592;49.986;11.618;2023-03-16T00:40:23;4.10;99.90
39925;DHT22;25592;49.986;11.618;2023-03-16T00:43:09;4.00;99.90
39925;DHT22;25592;49.986;11.618;2023-03-16T00:46:01;4.10;99.90
39925;DHT22;25592;49.986;11.618;2023-03-16T00:48:51;4.10;99.90
39925;DHT22;25592;49.986;11.618;2023-03-16T00:51:36;4.10;99.90
39925;DHT22;25592;49.986;11.618;2023-03-16T00:54:22;4.10;99.90
39925;DHT22;25592;49.986;11.618;2023-03-16T00:57:07;4.10;99.90
39925;DHT22;25592;49.986;11.618;2023-03-16T00:59:53;4.00;99.90
39925;DHT22;25592;49.986;11.618;2023-03-16T01:02:39;4.00;99.90
39925;DHT22;25592;49.986;11.618;2023-03-16T01:05:24;4.00;99.90
39925;DHT22;25592;49.986;11.618;2023-03-16T01:08:09;4.00;99.90
39925;DHT22;25592;49.986;11.618;2023-03-16T01:10:55;4.00;99.90
39925;DHT22;25592;49.986;11.618;2023-03-16T01:13:40;4.00;99.90
39925;DHT22;25592;49.986;11.618;2023-03-16T01:16:25;4.10;99.90
39925;DHT22;25592;49.986;11.618;2023-03-16T01:19:12;4.00;99.90
39925;DHT22;25592;49.986;11.618;2023-03-16T01:21:57;4.00;99.90
39925;DHT22;25592;49.986;11.618;2023-03-16T01:24:43;3.90;99.90
39925;DHT22;25592;49.986;11.618;2023-03-16T01:27:31;4.00;99.90
39925;DHT22;25592;49.986;11.618;2023-03-16T01:30:17;4.00;99.90
39925;DHT22;25592;49.986;11.618;2023-03-16T01:33:02;3.90;99.90
39925;DHT22;25592;49.986;11.618;2023-03-16T01:35:56;3.90;99.90
39925;DHT22;25592;49.986;11.618;2023-03-16T01:38:41;3.80;99.90
39925;DHT22;25592;49.986;11.618;2023-03-16T01:41:26;3.80;99.90
39925;DHT22;25592;49.986;11.618;2023-03-16T01:44:23;3.90;99.90
39925;DHT22;25592;49.986;11.618;2023-03-16T01:47:12;4.00;99.90
39925;DHT22;25592;49.986;11.618;2023-03-16T01:49:58;4.00;99.90
39925;DHT22;25592;49.986;11.618;2023-03-16T01:52:44;3.90;99.90
39925;DHT22;25592;49.986;11.618;2023-03-16T01:55:29;4.00;99.90
39925;DHT22;25592;49.986;11.618;2023-03-16T01:58:15;3.90;99.90
39925;DHT22;25592;49.986;11.618;2023-03-16T02:01:02;3.80;99.90
39925;DHT22;25592;49.986;11.618;2023-03-16T02:03:47;3.80;99.90
39925;DHT22;25592;49.986;11.618;2023-03-16T02:06:33;3.70;99.90
39925;DHT22;25592;49.986;11.618;2023-03-16T02:09:20;3.70;99.90
39925;DHT22;25592;49.986;11.618;2023-03-16T02:12:07;3.70;99.90
39925;DHT22;25592;49.986;11.618;2023-03-16T02:14:54;3.70;99.90
39925;DHT22;25592;49.986;11.618;2023-03-16T02:17:41;3.70;99.90
39925;DHT22;25592;49.986;11.618;2023-03-16T02:20:59;3.70;99.90
39925;DHT22;25592;49.986;11.618;2023-03-16T02:23:48;3.60;99.90
39925;DHT22;25592;49.986;11.618;2023-03-16T02:26:54;3.60;99.90
39925;DHT22;25592;49.986;11.618;2023-03-16T02:32:49;3.50;99.90
39925;DHT22;25592;49.986;11.618;2023-03-16T02:35:38;3.50;99.90
39925;DHT22;25592;49.986;11.618;2023-03-16T02:38:23;3.50;99.90
39925;DHT22;25592;49.986;11.618;2023-03-16T02:41:19;3.50;99.90
39925;DHT22;25592;49.986;11.618;2023-03-16T02:44:12;3.50;99.90
39925;DHT22;25592;49.986;11.618;2023-03-16T02:47:04;3.40;99.90
39925;DHT22;25592;49.986;11.618;2023-03-16T02:49:51;3.40;99.90
39925;DHT22;25592;49.986;11.618;2023-03-16T02:52:37;3.40;99.90
39925;DHT22;25592;49.986;11.618;2023-03-16T02:55:23;3.40;99.90
39925;DHT22;25592;49.986;11.618;2023-03-16T02:58:08;3.40;99.90
39925;DHT22;25592;49.986;11.618;2023-03-16T03:00:54;3.40;99.90
39925;DHT22;25592;49.986;11.618;2023-03-16T03:03:39;3.20;99.90
39925;DHT22;25592;49.986;11.618;2023-03-16T03:06:24;3.10;99.90
39925;DHT22;25592;49.986;11.618;2023-03-16T03:09:10;3.20;99.90
39925;DHT22;25592;49.986;11.618;2023-03-16T03:11:55;3.20;99.90
39925;DHT22;25592;49.986;11.618;2023-03-16T03:14:41;3.10;99.90
39925;DHT22;25592;49.986;11.618;2023-03-16T03:17:26;3.10;99.90
39925;DHT22;25592;49.986;11.618;2023-03-16T03:20:15;3.20;99.90
39925;DHT22;25592;49.986;11.618;2023-03-16T03:23:01;3.30;99.90
39925;DHT22;25592;49.986;11.618;2023-03-16T03:25:47;3.20;99.90
39925;DHT22;25592;49.986;11.618;2023-03-16T03:28:33;3.20;99.90
39925;DHT22;25592;49.986;11.618;2023-03-16T03:31:20;3.30;99.90
39925;DHT22;25592;49.986;11.618;2023-03-16T03:34:06;3.30;99.90
39925;DHT22;25592;49.986;11.618;2023-03-16T03:36:51;3.30;99.90
39925;DHT22;25592;49.986;11.618;2023-03-16T03:39:37;3.20;99.90
39925;DHT22;25592;49.986;11.618;2023-03-16T03:42:24;3.20;99.90
39925;DHT22;25592;49.986;11.618;2023-03-16T03:45:11;3.20;99.90
39925;DHT22;25592;49.986;11.618;2023-03-16T03:47:57;3.10;99.90
39925;DHT22;25592;49.986;11.618;2023-03-16T03:50:42;3.10;99.90
39925;DHT22;25592;49.986;11.618;2023-03-16T03:53:28;3.00;99.90
39925;DHT22;25592;49.986;11.618;2023-03-16T03:56:13;3.00;99.90
39925;DHT22;25592;49.986;11.618;2023-03-16T03:58:59;3.00;99.90
39925;DHT22;25592;49.986;11.618;2023-03-16T04:01:44;2.80;99.90
39925;DHT22;25592;49.986;11.618;2023-03-16T04:04:30;2.60;99.90
39925;DHT22;25592;49.986;11.618;2023-03-16T04:07:15;2.70;99.90
39925;DHT22;25592;49.986;11.618;2023-03-16T04:10:00;2.80;99.90
39925;DHT22;25592;49.986;11.618;2023-03-16T04:12:46;2.60;99.90
39925;DHT22;25592;49.986;11.618;2023-03-16T04:15:31;2.60;99.90
39925;DHT22;25592;49.986;11.618;2023-03-16T04:18:19;2.60;99.90
39925;DHT22;25592;49.986;11.618;2023-03-16T04:21:05;2.70;99.90
39925;DHT22;25592;49.986;11.618;2023-03-16T04:23:50;2.80;99.90
39925;DHT22;25592;49.986;11.618;2023-03-16T04:26:38;2.70;99.90
39925;DHT22;25592;49.986;11.618;2023-03-16T04:29:24;2.70;99.90
39925;DHT22;25592;49.986;11.618;2023-03-16T04:32:09;2.70;99.90
39925;DHT22;25592;49.986;11.618;2023-03-16T04:34:55;2.70;99.90
39925;DHT22;25592;49.986;11.618;2023-03-16T04:37:40;2.80;99.90
39925;DHT22;25592;49.986;11.618;2023-03-16T04:40:26;2.80;99.90
39925;DHT22;25592;49.986;11.618;2023-03-16T04:43:11;2.80;99.90
39925;DHT22;25592;49.986;11.618;2023-03-16T04:45:57;2.70;99.90
39925;DHT22;25592;49.986;11.618;2023-03-16T04:48:43;2.70;99.90
39925;DHT22;25592;49.986;11.618;2023-03-16T04:51:28;2.80;99.90
39925;DHT22;25592;49.986;11.618;2023-03-16T04:54:14;2.70;99.90
39925;DHT22;25592;49.986;11.618;2023-03-16T04:57:00;2.70;99.90
39925;DHT22;25592;49.986;11.618;2023-03-16T04:59:45;2.70;99.90
39925;DHT22;25592;49.986;11.618;2023-03-16T05:02:31;2.60;99.90
39925;DHT22;25592;49.986;11.618;2023-03-16T05:05:17;2.70;99.90
39925;DHT22;25592;49.986;11.618;2023-03-16T05:08:02;2.70;99.90
39925;DHT22;25592;49.986;11.618;2023-03-16T05:10:49;2.60;99.90
39925;DHT22;25592;49.986;11.618;2023-03-16T05:13:35;2.50;99.90
39925;DHT22;25592;49.986;11.618;2023-03-16T05:16:20;2.50;99.90
39925;DHT22;25592;49.986;11.618;2023-03-16T05:19:06;2.50;99.90
39925;DHT22;25592;49.986;11.618;2023-03-16T05:21:51;2.50;99.90
39925;DHT22;25592;49.986;11.618;2023-03-16T05:24:37;2.50;99.90
39925;DHT22;25592;49.986;11.618;2023-03-16T05:27:22;2.40;99.90
39925;DHT22;25592;49.986;11.618;2023-03-16T05:32:54;2.60;99.90
39925;DHT22;25592;49.986;11.618;2023-03-16T05:35:42;2.30;99.90
39925;DHT22;25592;49.986;11.618;2023-03-16T05:38:28;2.20;99.90
39925;DHT22;25592;49.986;11.618;2023-03-16T05:41:13;2.20;99.90
39925;DHT22;25592;49.986;11.618;2023-03-16T05:43:59;2.20;99.90
39925;DHT22;25592;49.986;11.618;2023-03-16T05:46:44;2.20;99.90
39925;DHT22;25592;49.986;11.618;2023-03-16T05:49:30;2.20;99.90
39925;DHT22;25592;49.986;11.618;2023-03-16T05:52:15;2.20;99.90
39925;DHT22;25592;49.986;11.618;2023-03-16T05:55:01;2.20;99.90
39925;DHT22;25592;49.986;11.618;2023-03-16T05:57:46;2.10;99.90
39925;DHT22;25592;49.986;11.618;2023-03-16T06:00:32;2.00;99.90
39925;DHT22;25592;49.986;11.618;2023-03-16T06:03:17;2.10;99.90
39925;DHT22;25592;49.986;11.618;2023-03-16T06:06:03;2.10;99.90
39925;DHT22;25592;49.986;11.618;2023-03-16T06:08:48;2.10;99.90
39925;DHT22;25592;49.986;11.618;2023-03-16T06:11:33;2.10;99.90
39925;DHT22;25592;49.986;11.618;2023-03-16T06:14:19;2.30;99.90
39925;DHT22;25592;49.986;11.618;2023-03-16T06:17:04;2.80;99.90
39925;DHT22;25592;49.986;11.618;2023-03-16T06:19:49;2.70;99.90
39925;DHT22;25592;49.986;11.618;2023-03-16T06:22:36;2.60;99.90
39925;DHT22;25592;49.986;11.618;2023-03-16T06:25:22;2.50;99.90
39925;DHT22;25592;49.986;11.618;2023-03-16T06:28:08;2.60;99.90
39925;DHT22;25592;49.986;11.618;2023-03-16T06:30:55;2.60;99.90
39925;DHT22;25592;49.986;11.618;2023-03-16T06:33:40;2.40;99.90
39925;DHT22;25592;49.986;11.618;2023-03-16T06:36:26;2.30;99.90
39925;DHT22;25592;49.986;11.618;2023-03-16T06:39:12;2.30;99.90
39925;DHT22;25592;49.986;11.618;2023-03-16T06:41:58;2.20;99.90
39925;DHT22;25592;49.986;11.618;2023-03-16T06:44:43;2.20;99.90
39925;DHT22;25592;49.986;11.618;2023-03-16T06:47:29;2.20;99.90
39925;DHT22;25592;49.986;11.618;2023-03-16T06:50:15;2.10;99.90
39925;DHT22;25592;49.986;11.618;2023-03-16T06:53:01;1.90;99.90
39925;DHT22;25592;49.986;11.618;2023-03-16T06:55:47;1.80;99.90
39925;DHT22;25592;49.986;11.618;2023-03-16T06:58:32;1.70;99.90
39925;DHT22;25592;49.986;11.618;2023-03-16T07:01:17;1.60;99.90
39925;DHT22;25592;49.986;11.618;2023-03-16T07:04:03;1.60;99.90
39925;DHT22;25592;49.986;11.618;2023-03-16T07:06:48;1.70;99.90
39925;DHT22;25592;49.986;11.618;2023-03-16T07:09:33;1.70;99.90
39925;DHT22;25592;49.986;11.618;2023-03-16T07:12:23;1.70;99.90
39925;DHT22;25592;49.986;11.618;2023-03-16T07:15:09;1.80;99.90
39925;DHT22;25592;49.986;11.618;2023-03-16T07:17:55;1.70;99.90
39925;DHT22;25592;49.986;11.618;2023-03-16T07:20:41;1.80;99.90
39925;DHT22;25592;49.986;11.618;2023-03-16T07:23:26;1.80;99.90
39925;DHT22;25592;49.986;11.618;2023-03-16T07:26:11;1.90;99.90
39925;DHT22;25592;49.986;11.618;2023-03-16T07:28:58;1.80;99.90
39925;DHT22;25592;49.986;11.618;2023-03-16T07:31:43;1.70;99.90
39925;DHT22;25592;49.986;11.618;2023-03-16T07:34:29;1.80;99.90
39925;DHT22;25592;49.986;11.618;2023-03-16T07:37:14;1.70;99.90
39925;DHT22;25592;49.986;11.618;2023-03-16T07:40:10;1.60;99.90
39925;DHT22;25592;49.986;11.618;2023-03-16T07:42:55;1.60;99.90
39925;DHT22;25592;49.986;11.618;2023-03-16T07:45:41;1.30;99.90
39925;DHT22;25592;49.986;11.618;2023-03-16T07:48:26;1.20;99.90
39925;DHT22;25592;49.986;11.618;2023-03-16T07:51:12;1.30;99.90
39925;DHT22;25592;49.986;11.618;2023-03-16T07:53:57;1.30;99.90
39925;DHT22;25592;49.986;11.618;2023-03-16T07:56:43;1.40;99.90
39925;DHT22;25592;49.986;11.618;2023-03-16T07:59:34;1.50;99.90
39925;DHT22;25592;49.986;11.618;2023-03-16T08:02:19;1.50;99.90
39925;DHT22;25592;49.986;11.618;2023-03-16T08:05:06;1.70;99.90
39925;DHT22;25592;49.986;11.618;2023-03-16T08:07:54;1.70;99.90
39925;DHT22;25592;49.986;11.618;2023-03-16T08:10:41;1.80;99.90
39925;DHT22;25592;49.986;11.618;2023-03-16T08:13:27;1.80;99.90
39925;DHT22;25592;49.986;11.618;2023-03-16T08:16:12;2.00;99.90
39925;DHT22;25592;49.986;11.618;2023-03-16T08:18:57;2.00;99.90
39925;DHT22;25592;49.986;11.618;2023-03-16T08:21:43;2.10;99.90
39925;DHT22;25592;49.986;11.618;2023-03-16T08:24:45;2.30;99.90
39925;DHT22;25592;49.986;11.618;2023-03-16T08:27:31;2.20;99.90
39925;DHT22;25592;49.986;11.618;2023-03-16T08:30:17;2.30;99.90
39925;DHT22;25592;49.986;11.618;2023-03-16T08:33:02;2.40;99.90
39925;DHT22;25592;49.986;11.618;2023-03-16T08:35:47;2.50;99.90
39925;DHT22;25592;49.986;11.618;2023-03-16T08:38:33;2.30;99.90
39925;DHT22;25592;49.986;11.618;2023-03-16T08:41:19;2.40;99.90
39925;DHT22;25592;49.986;11.618;2023-03-16T08:44:05;2.50;99.90
39925;DHT22;25592;49.986;11.618;2023-03-16T08:46:51;2.60;99.90
39925;DHT22;25592;49.986;11.618;2023-03-16T08:49:37;2.50;99.90
39925;DHT22;25592;49.986;11.618;2023-03-16T08:52:22;2.30;99.90
39925;DHT22;25592;49.986;11.618;2023-03-16T08:55:08;2.50;99.90
39925;DHT22;25592;49.986;11.618;2023-03-16T08:57:54;2.60;99.90
39925;DHT22;25592;49.986;11.618;2023-03-16T09:00:40;2.50;99.90
39925;DHT22;25592;49.986;11.618;2023-03-16T09:03:26;2.70;99.90
39925;DHT22;25592;49.986;11.618;2023-03-16T09:06:14;3.00;99.90
39925;DHT22;25592;49.986;11.618;2023-03-16T09:08:59;3.10;99.90
39925;DHT22;25592;49.986;11.618;2023-03-16T09:11:44;3.30;99.90
39925;DHT22;25592;49.986;11.618;2023-03-16T09:14:31;3.30;99.90
39925;DHT22;25592;49.986;11.618;2023-03-16T09:17:17;3.40;99.90
39925;DHT22;25592;49.986;11.618;2023-03-16T09:20:04;3.40;99.90
39925;DHT22;25592;49.986;11.618;2023-03-16T09:23:05;3.50;99.90
39925;DHT22;25592;49.986;11.618;2023-03-16T09:25:51;3.80;99.90
39925;DHT22;25592;49.986;11.618;2023-03-16T09:28:38;4.10;99.90
39925;DHT22;25592;49.986;11.618;2023-03-16T09:31:24;4.10;99.90
39925;DHT22;25592;49.986;11.618;2023-03-16T09:34:10;4.10;99.90
39925;DHT22;25592;49.986;11.618;2023-03-16T09:36:56;4.20;99.90
39925;DHT22;25592;49.986;11.618;2023-03-16T09:39:41;4.30;99.90
39925;DHT22;25592;49.986;11.618;2023-03-16T09:42:37;4.40;99.90
39925;DHT22;25592;49.986;11.618;2023-03-16T09:45:34;4.50;99.90
39925;DHT22;25592;49.986;11.618;2023-03-16T09:48:20;4.60;99.90
39925;DHT22;25592;49.986;11.618;2023-03-16T09:51:16;4.70;99.90
39925;DHT22;25592;49.986;11.618;2023-03-16T09:54:12;4.70;99.90
39925;DHT22;25592;49.986;11.618;2023-03-16T09:56:59;4.80;99.90
39925;DHT22;25592;49.986;11.618;2023-03-16T09:59:46;4.50;99.90
39925;DHT22;25592;49.986;11.618;2023-03-16T10:02:38;4.70;99.90
39925;DHT22;25592;49.986;11.618;2023-03-16T10:05:26;4.80;99.90
39925;DHT22;25592;49.986;11.618;2023-03-16T10:11:38;5.20;99.90
39925;DHT22;25592;49.986;11.618;2023-03-16T10:14:48;5.70;99.90
39925;DHT22;25592;49.986;11.618;2023-03-16T10:17:57;5.90;99.90
39925;DHT22;25592;49.986;11.618;2023-03-16T10:20:45;6.00;99.90
39925;DHT22;25592;49.986;11.618;2023-03-16T10:23:33;6.10;99.90
39925;DHT22;25592;49.986;11.618;2023-03-16T10:26:23;6.10;99.90
39925;DHT22;25592;49.986;11.618;2023-03-16T10:29:11;5.70;99.90
39925;DHT22;25592;49.986;11.618;2023-03-16T10:32:04;5.80;99.90
39925;DHT22;25592;49.986;11.618;2023-03-16T10:34:59;6.10;99.90
39925;DHT22;25592;49.986;11.618;2023-03-16T10:37:46;6.30;99.90
39925;DHT22;25592;49.986;11.618;2023-03-16T10:40:36;6.40;99.90
39925;DHT22;25592;49.986;11.618;2023-03-16T10:43:23;6.70;99.90
39925;DHT22;25592;49.986;11.618;2023-03-16T10:46:09;6.70;99.90
39925;DHT22;25592;49.986;11.618;2023-03-16T10:48:59;6.80;99.90
39925;DHT22;25592;49.986;11.618;2023-03-16T10:51:45;6.90;99.90
39925;DHT22;25592;49.986;11.618;2023-03-16T10:54:36;6.70;99.90
39925;DHT22;25592;49.986;11.618;2023-03-16T10:57:34;6.90;99.90
39925;DHT22;25592;49.986;11.618;2023-03-16T11:00:34;7.40;99.90
39925;DHT22;25592;49.986;11.618;2023-03-16T11:06:23;7.30;99.90
39925;DHT22;25592;49.986;11.618;2023-03-16T11:09:18;7.60;99.90
39925;DHT22;25592;49.986;11.618;2023-03-16T11:12:18;8.10;99.90
39925;DHT22;25592;49.986;11.618;2023-03-16T11:15:12;8.20;99.90
39925;DHT22;25592;49.986;11.618;2023-03-16T11:18:19;7.90;99.90
39925;DHT22;25592;49.986;11.618;2023-03-16T11:21:33;8.50;99.90
39925;DHT22;25592;49.986;11.618;2023-03-16T11:27:42;8.40;99.90
39925;DHT22;25592;49.986;11.618;2023-03-16T11:30:36;8.50;99.90
39925;DHT22;25592;49.986;11.618;2023-03-16T11:33:23;8.40;99.90
39925;DHT22;25592;49.986;11.618;2023-03-16T11:39:55;8.50;99.90
39925;DHT22;25592;49.986;11.618;2023-03-16T11:43:03;8.40;99.90
39925;DHT22;25592;49.986;11.618;2023-03-16T11:46:02;8.10;99.90
39925;DHT22;25592;49.986;11.618;2023-03-16T11:54:58;8.50;99.90
39925;DHT22;25592;49.986;11.618;2023-03-16T11:58:20;8.60;99.90
39925;DHT22;25592;49.986;11.618;2023-03-16T12:08:09;8.60;99.90
39925;DHT22;25592;49.986;11.618;2023-03-16T12:11:00;8.80;99.90
39925;DHT22;25592;49.986;11.618;2023-03-16T12:17:08;9.60;99.90
39925;DHT22;25592;49.986;11.618;2023-03-16T12:20:02;9.30;99.90
39925;DHT22;25592;49.986;11.618;2023-03-16T12:22:58;9.80;99.40
39925;DHT22;25592;49.986;11.618;2023-03-16T12:25:47;9.60;98.70
39925;DHT22;25592;49.986;11.618;2023-03-16T12:28:33;9.50;98.70
39925;DHT22;25592;49.986;11.618;2023-03-16T12:34:35;9.60;98.70
39925;DHT22;25592;49.986;11.618;2023-03-16T12:37:33;9.70;98.20
39925;DHT22;25592;49.986;11.618;2023-03-16T12:43:40;9.40;97.50
39925;DHT22;25592;49.986;11.618;2023-03-16T12:47:22;9.60;97.70
39925;DHT22;25592;49.986;11.618;2023-03-16T12:49:41;10.00;97.60
39925;DHT22;25592;49.986;11.618;2023-03-16T12:52:38;10.30;97.30
39925;DHT22;25592;49.986;11.618;2023-03-16T12:55:38;10.90;97.40
39925;DHT22;25592;49.986;11.618;2023-03-16T12:58:24;11.00;95.30
39925;DHT22;25592;49.986;11.618;2023-03-16T13:01:13;11.30;96.20
39925;DHT22;25592;49.986;11.618;2023-03-16T13:04:05;11.00;94.00
39925;DHT22;25592;49.986;11.618;2023-03-16T13:07:06;10.90;94.00
39925;DHT22;25592;49.986;11.618;2023-03-16T13:12:43;10.90;92.50
39925;DHT22;25592;49.986;11.618;2023-03-16T13:15:30;11.00;92.70
39925;DHT22;25592;49.986;11.618;2023-03-16T13:21:14;11.00;90.40
39925;DHT22;25592;49.986;11.618;2023-03-16T13:27:32;10.40;89.80
39925;DHT22;25592;49.986;11.618;2023-03-16T13:30:23;10.70;88.90
39925;DHT22;25592;49.986;11.618;2023-03-16T13:33:45;10.70;85.90
39925;DHT22;25592;49.986;11.618;2023-03-16T13:36:31;10.60;86.10
39925;DHT22;25592;49.986;11.618;2023-03-16T13:39:21;10.70;88.60
39925;DHT22;25592;49.986;11.618;2023-03-16T13:42:18;11.10;87.50
39925;DHT22;25592;49.986;11.618;2023-03-16T13:45:13;10.80;84.20
39925;DHT22;25592;49.986;11.618;2023-03-16T13:47:59;10.80;85.10
39925;DHT22;25592;49.986;11.618;2023-03-16T13:50:56;11.10;85.10
39925;DHT22;25592;49.986;11.618;2023-03-16T13:53:41;11.10;82.90
39925;DHT22;25592;49.986;11.618;2023-03-16T13:56:27;11.10;84.60
39925;DHT22;25592;49.986;11.618;2023-03-16T13:59:15;11.00;83.70
39925;DHT22;25592;49.986;11.618;2023-03-16T14:02:02;11.20;85.40
39925;DHT22;25592;49.986;11.618;2023-03-16T14:04:47;11.20;85.20
39925;DHT22;25592;49.986;11.618;2023-03-16T14:07:36;11.40;83.50
39925;DHT22;25592;49.986;11.618;2023-03-16T14:10:25;11.50;83.70
39925;DHT22;25592;49.986;11.618;2023-03-16T14:16:15;11.70;83.60
39925;DHT22;25592;49.986;11.618;2023-03-16T14:19:05;11.70;79.80
39925;DHT22;25592;49.986;11.618;2023-03-16T14:21:52;11.90;82.10
39925;DHT22;25592;49.986;11.618;2023-03-16T14:24:38;11.90;82.10
39925;DHT22;25592;49.986;11.618;2023-03-16T14:30:26;11.70;80.50
39925;DHT22;25592;49.986;11.618;2023-03-16T14:33:27;11.50;81.20
39925;DHT22;25592;49.986;11.618;2023-03-16T14:36:18;11.80;80.30
39925;DHT22;25592;49.986;11.618;2023-03-16T14:39:29;11.80;81.00
39925;DHT22;25592;49.986;11.618;2023-03-16T14:42:22;12.10;81.80
39925;DHT22;25592;49.986;11.618;2023-03-16T14:45:13;12.10;80.80
39925;DHT22;25592;49.986;11.618;2023-03-16T14:48:05;12.60;82.30
39925;DHT22;25592;49.986;11.618;2023-03-16T14:50:56;12.70;80.60
39925;DHT22;25592;49.986;11.618;2023-03-16T14:53:42;13.00;80.50
39925;DHT22;25592;49.986;11.618;2023-03-16T14:56:34;13.10;79.20
39925;DHT22;25592;49.986;11.618;2023-03-16T14:59:20;12.90;79.90
39925;DHT22;25592;49.986;11.618;2023-03-16T15:02:14;12.60;77.20
39925;DHT22;25592;49.986;11.618;2023-03-16T15:05:01;12.60;78.30
39925;DHT22;25592;49.986;11.618;2023-03-16T15:07:50;12.70;78.40
39925;DHT22;25592;49.986;11.618;2023-03-16T15:10:38;12.80;75.80
39925;DHT22;25592;49.986;11.618;2023-03-16T15:13:24;11.90;74.00
39925;DHT22;25592;49.986;11.618;2023-03-16T15:16:31;11.60;76.00
39925;DHT22;25592;49.986;11.618;2023-03-16T15:19:16;11.50;76.90
39925;DHT22;25592;49.986;11.618;2023-03-16T15:22:03;11.50;76.20
39925;DHT22;25592;49.986;11.618;2023-03-16T15:24:48;11.90;78.00
39925;DHT22;25592;49.986;11.618;2023-03-16T15:27:35;11.90;77.50
39925;DHT22;25592;49.986;11.618;2023-03-16T15:30:23;11.60;76.70
39925;DHT22;25592;49.986;11.618;2023-03-16T15:33:10;11.20;75.70
39925;DHT22;25592;49.986;11.618;2023-03-16T15:35:58;11.20;77.90
39925;DHT22;25592;49.986;11.618;2023-03-16T15:38:45;11.50;77.40
39925;DHT22;25592;49.986;11.618;2023-03-16T15:41:31;11.60;78.50
39925;DHT22;25592;49.986;11.618;2023-03-16T15:44:31;11.50;76.60
39925;DHT22;25592;49.986;11.618;2023-03-16T15:47:17;11.50;75.30
39925;DHT22;25592;49.986;11.618;2023-03-16T15:50:02;11.30;78.00
39925;DHT22;25592;49.986;11.618;2023-03-16T15:52:54;11.50;76.20
39925;DHT22;25592;49.986;11.618;2023-03-16T15:55:44;11.50;75.70
39925;DHT22;25592;49.986;11.618;2023-03-16T15:58:33;11.20;76.50
39925;DHT22;25592;49.986;11.618;2023-03-16T16:01:27;11.30;77.50
39925;DHT22;25592;49.986;11.618;2023-03-16T16:04:17;11.50;79.20
39925;DHT22;25592;49.986;11.618;2023-03-16T16:07:08;11.50;80.00
39925;DHT22;25592;49.986;11.618;2023-03-16T16:09:53;11.30;77.70
39925;DHT22;25592;49.986;11.618;2023-03-16T16:12:39;11.30;79.20
39925;DHT22;25592;49.986;11.618;2023-03-16T16:15:43;11.10;76.10
39925;DHT22;25592;49.986;11.618;2023-03-16T16:18:31;11.00;77.90
39925;DHT22;25592;49.986;11.618;2023-03-16T16:21:21;11.20;76.80
39925;DHT22;25592;49.986;11.618;2023-03-16T16:24:09;11.30;76.80
39925;DHT22;25592;49.986;11.618;2023-03-16T16:26:55;11.20;74.40
39925;DHT22;25592;49.986;11.618;2023-03-16T16:29:40;11.00;75.00
39925;DHT22;25592;49.986;11.618;2023-03-16T16:32:25;11.00;76.00
39925;DHT22;25592;49.986;11.618;2023-03-16T16:35:18;11.10;76.00
39925;DHT22;25592;49.986;11.618;2023-03-16T16:38:04;11.00;76.70
39925;DHT22;25592;49.986;11.618;2023-03-16T16:40:50;10.90;75.00
39925;DHT22;25592;49.986;11.618;2023-03-16T16:46:27;10.30;76.70
39925;DHT22;25592;49.986;11.618;2023-03-16T16:49:20;10.30;76.90
39925;DHT22;25592;49.986;11.618;2023-03-16T16:52:19;10.20;76.50
39925;DHT22;25592;49.986;11.618;2023-03-16T16:55:05;10.20;77.40
39925;DHT22;25592;49.986;11.618;2023-03-16T16:57:53;10.20;77.70
39925;DHT22;25592;49.986;11.618;2023-03-16T17:00:38;10.20;78.30
39925;DHT22;25592;49.986;11.618;2023-03-16T17:03:27;10.20;79.10
39925;DHT22;25592;49.986;11.618;2023-03-16T17:06:15;10.20;78.30
39925;DHT22;25592;49.986;11.618;2023-03-16T17:09:01;10.20;79.00
39925;DHT22;25592;49.986;11.618;2023-03-16T17:11:46;10.20;78.50
39925;DHT22;25592;49.986;11.618;2023-03-16T17:14:32;10.10;78.20
39925;DHT22;25592;49.986;11.618;2023-03-16T17:17:17;9.90;78.80
39925;DHT22;25592;49.986;11.618;2023-03-16T17:20:04;9.70;77.10
39925;DHT22;25592;49.986;11.618;2023-03-16T17:22:51;9.70;78.00
39925;DHT22;25592;49.986;11.618;2023-03-16T17:25:38;9.60;78.50
39925;DHT22;25592;49.986;11.618;2023-03-16T17:28:25;9.60;78.00
39925;DHT22;25592;49.986;11.618;2023-03-16T17:31:18;9.60;79.40
39925;DHT22;25592;49.986;11.618;2023-03-16T17:37:00;9.70;77.70
39925;DHT22;25592;49.986;11.618;2023-03-16T17:39:46;9.60;78.70
39925;DHT22;25592;49.986;11.618;2023-03-16T17:42:32;9.60;78.00
39925;DHT22;25592;49.986;11.618;2023-03-16T17:45:25;9.50;78.20
39925;DHT22;25592;49.986;11.618;2023-03-16T17:48:15;9.60;78.90
39925;DHT22;25592;49.986;11.618;2023-03-16T17:51:01;9.60;80.00
39925;DHT22;25592;49.986;11.618;2023-03-16T17:53:47;9.60;81.00
39925;DHT22;25592;49.986;11.618;2023-03-16T17:56:32;9.50;82.50
39925;DHT22;25592;49.986;11.618;2023-03-16T17:59:20;9.40;82.50
39925;DHT22;25592;49.986;11.618;2023-03-16T18:05:34;9.30;83.60
39925;DHT22;25592;49.986;11.618;2023-03-16T18:08:30;9.20;83.40
39925;DHT22;25592;49.986;11.618;2023-03-16T18:14:10;9.00;84.40
39925;DHT22;25592;49.986;11.618;2023-03-16T18:17:15;9.00;84.30
39925;DHT22;25592;49.986;11.618;2023-03-16T18:20:00;9.00;84.10
39925;DHT22;25592;49.986;11.618;2023-03-16T18:22:46;9.00;84.00
39925;DHT22;25592;49.986;11.618;2023-03-16T18:25:34;9.00;83.30
39925;DHT22;25592;49.986;11.618;2023-03-16T18:28:23;8.90;84.80
39925;DHT22;25592;49.986;11.618;2023-03-16T18:31:23;8.80;85.20
39925;DHT22;25592;49.986;11.618;2023-03-16T18:34:19;8.90;84.80
39925;DHT22;25592;49.986;11.618;2023-03-16T18:37:05;8.80;85.30
39925;DHT22;25592;49.986;11.618;2023-03-16T18:39:52;8.70;85.30
39925;DHT22;25592;49.986;11.618;2023-03-16T18:42:38;8.80;86.30
39925;DHT22;25592;49.986;11.618;2023-03-16T18:45:24;8.60;85.90
39925;DHT22;25592;49.986;11.618;2023-03-16T18:48:18;8.60;86.50
39925;DHT22;25592;49.986;11.618;2023-03-16T18:51:08;8.50;86.90